createdAt,value
2023-02-14T00:00:56.704Z,53.04
2023-02-14T00:01:56.226Z,55.23
2023-02-14T00:02:56.238Z,46.62
2023-02-14T00:03:56.473Z,50.92
2023-02-14T00:04:56.220Z,45.44
2023-02-14T00:05:56.214Z,45.82
2023-02-14T00:06:56.199Z,51.50
2023-02-14T00:07:56.197Z,44.40
2023-02-14T00:08:56.130Z,49.61
2023-02-14T00:09:56.134Z,46.97
2023-02-14T00:10:56.262Z,51.43
2023-02-14T00:11:56.105Z,50.70
2023-02-14T00:12:56.152Z,51.85
2023-02-14T00:13:56.092Z,44.93
2023-02-14T00:14:56.094Z,46.05
2023-02-14T00:15:56.130Z,52.23
2023-02-14T00:16:56.137Z,52.81
2023-02-14T00:17:56.064Z,50.92
2023-02-14T00:18:56.202Z,44.64
2023-02-14T00:19:56.063Z,51.84
2023-02-14T00:20:56.305Z,56.09
2023-02-14T00:21:56.048Z,47.03
2023-02-14T00:22:56.027Z,53.58
2023-02-14T00:23:56.036Z,51.23
2023-02-14T00:24:56.002Z,50.65
2023-02-14T00:26:27.912Z,44.57
2023-02-14T00:26:56.034Z,44.49
2023-02-14T00:27:55.989Z,57.53
2023-02-14T00:28:55.982Z,47.46
2023-02-14T00:29:56.039Z,55.58
2023-02-14T00:30:56.036Z,45.58
2023-02-14T00:31:56.011Z,44.47
2023-02-14T00:32:56.015Z,45.02
2023-02-14T00:33:55.940Z,48.55
2023-02-14T00:34:55.966Z,54.36
2023-02-14T00:35:55.952Z,44.97
2023-02-14T00:36:55.998Z,51.00
2023-02-14T00:37:55.930Z,46.27
2023-02-14T00:38:55.910Z,48.54
2023-02-14T00:39:55.897Z,45.37
2023-02-14T00:40:55.992Z,45.48
2023-02-14T00:41:55.907Z,51.31
2023-02-14T00:42:55.883Z,50.58
2023-02-14T00:43:55.890Z,46.67
2023-02-14T00:44:55.891Z,47.31
2023-02-14T00:45:55.967Z,47.30
2023-02-14T00:46:55.836Z,50.01
2023-02-14T00:47:55.836Z,47.02
2023-02-14T00:48:55.851Z,56.29
2023-02-14T00:49:56.544Z,44.94
2023-02-14T00:50:55.848Z,44.40
2023-02-14T00:51:55.813Z,50.14
2023-02-14T00:52:55.805Z,44.58
2023-02-14T00:53:55.827Z,45.05
2023-02-14T00:54:55.793Z,51.38
2023-02-14T00:55:55.777Z,50.98
2023-02-14T00:56:55.794Z,50.27
2023-02-14T00:57:55.767Z,51.15
2023-02-14T00:58:55.752Z,49.11
2023-02-14T00:59:55.739Z,52.02
2023-02-14T01:00:55.782Z,47.36
2023-02-14T01:01:55.753Z,48.65
2023-02-14T01:02:55.843Z,50.68
2023-02-14T01:03:55.721Z,44.53
2023-02-14T01:04:55.736Z,54.03
2023-02-14T01:05:55.700Z,50.83
2023-02-14T01:06:55.705Z,44.35
2023-02-14T01:07:55.715Z,51.04
2023-02-14T01:08:55.696Z,44.49
2023-02-14T01:09:55.749Z,44.38
2023-02-14T01:10:55.674Z,44.12
2023-02-14T01:11:55.685Z,62.21
2023-02-14T01:12:55.673Z,47.59
2023-02-14T01:13:55.648Z,60.20
2023-02-14T01:14:55.627Z,51.02
2023-02-14T01:15:55.630Z,52.68
2023-02-14T01:16:55.746Z,46.71
2023-02-14T01:17:55.609Z,61.31
2023-02-14T01:18:55.625Z,54.64
2023-02-14T01:19:55.644Z,53.99
2023-02-14T01:20:55.624Z,55.61
2023-02-14T01:21:55.581Z,44.67
2023-02-14T01:22:55.580Z,47.75
2023-02-14T01:23:55.648Z,55.12
2023-02-14T01:24:55.557Z,56.47
2023-02-14T01:25:55.559Z,53.56
2023-02-14T01:26:55.534Z,52.56
2023-02-14T01:27:55.559Z,45.92
2023-02-14T01:28:55.535Z,47.57
2023-02-14T01:29:55.621Z,61.39
2023-02-14T01:30:55.570Z,52.49
2023-02-14T01:31:55.594Z,47.62
2023-02-14T01:32:55.527Z,44.25
2023-02-14T01:33:55.472Z,50.09
2023-02-14T01:34:55.479Z,44.62
2023-02-14T01:35:55.484Z,44.22
2023-02-14T01:36:55.465Z,45.29
2023-02-14T01:37:55.474Z,50.21
2023-02-14T01:38:55.459Z,46.21
2023-02-14T01:39:55.442Z,56.42
2023-02-14T01:40:55.450Z,51.67
2023-02-14T01:41:55.417Z,46.18
2023-02-14T01:42:55.446Z,45.89
2023-02-14T01:43:55.409Z,44.67
2023-02-14T01:44:55.405Z,44.08
2023-02-14T01:45:55.455Z,44.53
2023-02-14T01:46:55.421Z,44.87
2023-02-14T01:47:55.404Z,57.75
2023-02-14T01:48:55.398Z,44.30
2023-02-14T01:49:55.375Z,53.02
2023-02-14T01:50:55.381Z,49.60
2023-02-14T01:51:55.405Z,43.52
2023-02-14T01:52:55.369Z,52.35
2023-02-14T01:53:55.354Z,50.13
2023-02-14T01:54:55.336Z,51.78
2023-02-14T01:55:55.335Z,50.93
2023-02-14T01:56:55.377Z,54.94
2023-02-14T01:57:55.315Z,62.84
2023-02-14T01:58:55.312Z,49.21
2023-02-14T01:59:55.306Z,43.74
2023-02-14T02:00:55.331Z,50.30
2023-02-14T02:01:55.431Z,47.91
2023-02-14T02:02:55.347Z,43.67
2023-02-14T02:03:55.267Z,44.22
2023-02-14T02:04:55.295Z,44.30
2023-02-14T02:05:55.271Z,53.96
2023-02-14T02:06:55.239Z,50.24
2023-02-14T02:07:55.256Z,50.77
2023-02-14T02:08:55.236Z,45.51
2023-02-14T02:09:55.237Z,45.29
2023-02-14T02:10:55.220Z,44.69
2023-02-14T02:11:55.273Z,55.87
2023-02-14T02:12:55.237Z,48.96
2023-02-14T02:13:55.187Z,44.39
2023-02-14T02:14:55.204Z,54.99
2023-02-14T02:15:55.190Z,45.73
2023-02-14T02:16:55.241Z,47.29
2023-02-14T02:17:55.145Z,49.53
2023-02-14T02:18:55.164Z,55.71
2023-02-14T02:19:55.218Z,55.61
2023-02-14T02:20:55.160Z,44.66
2023-02-14T02:21:55.138Z,43.49
2023-02-14T02:22:55.147Z,50.35
2023-02-14T02:23:55.129Z,45.50
2023-02-14T02:24:55.114Z,44.08
2023-02-14T02:25:55.162Z,52.74
2023-02-14T02:26:55.089Z,44.72
2023-02-14T02:27:55.092Z,44.55
2023-02-14T02:28:55.091Z,44.22
2023-02-14T02:29:55.129Z,43.70
2023-02-14T02:30:55.240Z,44.67
2023-02-14T02:31:55.177Z,50.65
2023-02-14T02:32:55.040Z,45.40
2023-02-14T02:33:55.059Z,52.97
2023-02-14T02:34:55.053Z,55.04
2023-02-14T02:35:55.033Z,44.33
2023-02-14T02:36:55.041Z,43.78
2023-02-14T02:37:55.019Z,51.02
2023-02-14T02:38:55.013Z,50.46
2023-02-14T02:39:55.006Z,44.10
2023-02-14T02:40:55.011Z,49.82
2023-02-14T02:41:55.051Z,44.37
2023-02-14T02:42:54.980Z,44.53
2023-02-14T02:44:26.876Z,43.70
2023-02-14T02:44:54.984Z,47.54
2023-02-14T02:46:26.962Z,47.98
2023-02-14T02:47:26.896Z,43.20
2023-02-14T02:47:54.942Z,43.12
2023-02-14T02:49:26.847Z,49.22
2023-02-14T02:49:54.936Z,54.19
2023-02-14T02:51:26.826Z,50.71
2023-02-14T02:52:26.833Z,52.18
2023-02-14T02:52:54.921Z,61.86
2023-02-14T02:53:54.897Z,44.82
2023-02-14T02:55:26.786Z,43.15
2023-02-14T02:55:54.906Z,43.08
2023-02-14T02:57:26.801Z,42.89
2023-02-14T02:57:54.875Z,58.03
2023-02-14T02:58:54.856Z,51.67
2023-02-14T02:59:54.859Z,54.67
2023-02-14T03:01:26.807Z,47.30
2023-02-14T03:02:27.783Z,44.82
2023-02-14T03:03:26.747Z,44.77
2023-02-14T03:03:54.825Z,43.77
2023-02-14T03:04:54.958Z,43.71
2023-02-14T03:06:26.721Z,49.19
2023-02-14T03:06:54.809Z,43.36
2023-02-14T03:08:26.693Z,49.20
2023-02-14T03:09:26.728Z,43.18
2023-02-14T03:09:54.799Z,44.15
2023-02-14T03:10:54.777Z,50.43
2023-02-14T03:11:54.794Z,49.02
2023-02-14T03:12:54.777Z,48.88
2023-02-14T03:13:54.776Z,43.45
2023-02-14T03:14:54.760Z,43.96
2023-02-14T03:15:54.836Z,53.36
2023-02-14T03:16:54.726Z,59.15
2023-02-14T03:17:54.723Z,55.86
2023-02-14T03:18:54.715Z,49.16
2023-02-14T03:19:54.732Z,43.65
2023-02-14T03:20:54.727Z,49.48
2023-02-14T03:21:54.705Z,50.01
2023-02-14T03:22:54.685Z,43.48
2023-02-14T03:23:54.679Z,43.42
2023-02-14T03:24:54.669Z,48.63
2023-02-14T03:25:54.700Z,50.61
2023-02-14T03:26:54.653Z,49.93
2023-02-14T03:27:54.654Z,54.15
2023-02-14T03:28:54.665Z,51.74
2023-02-14T03:29:54.665Z,44.71
2023-02-14T03:30:54.742Z,43.39
2023-02-14T03:31:54.690Z,51.52
2023-02-14T03:32:55.058Z,50.26
2023-02-14T03:33:54.608Z,57.85
2023-02-14T03:34:54.604Z,43.58
2023-02-14T03:35:54.601Z,43.65
2023-02-14T03:36:54.609Z,45.68
2023-02-14T03:37:54.631Z,49.11
2023-02-14T03:38:54.584Z,43.90
2023-02-14T03:39:54.557Z,54.70
2023-02-14T03:40:54.571Z,60.14
2023-02-14T03:41:54.562Z,54.77
2023-02-14T03:42:54.562Z,44.12
2023-02-14T03:43:54.535Z,57.78
2023-02-14T03:44:54.569Z,44.37
2023-02-14T03:45:54.535Z,51.90
2023-02-14T03:46:54.569Z,51.14
2023-02-14T04:04:02.682Z,56.82
2023-02-14T04:05:02.782Z,59.34
2023-02-14T04:06:03.877Z,55.23
2023-02-14T04:07:03.796Z,53.33
2023-02-14T04:08:03.800Z,58.22
2023-02-14T04:09:03.802Z,54.61
2023-02-14T04:10:03.821Z,56.71
2023-02-14T04:11:03.784Z,62.18
2023-02-14T04:12:03.773Z,53.73
2023-02-14T04:13:03.760Z,61.51
2023-02-14T04:14:03.755Z,46.93
2023-02-14T04:15:03.746Z,53.23
2023-02-14T04:16:03.839Z,51.13
2023-02-14T04:17:03.738Z,61.03
2023-02-14T04:18:03.713Z,68.46
2023-02-14T04:19:03.706Z,56.40
2023-02-14T04:20:03.729Z,64.22
2023-02-14T04:21:03.760Z,55.03
2023-02-14T04:22:03.772Z,51.30
2023-02-14T04:23:03.770Z,64.24
2023-02-14T04:24:03.684Z,61.95
2023-02-14T04:25:03.688Z,57.02
2023-02-14T04:26:03.689Z,49.42
2023-02-14T04:27:03.654Z,60.44
2023-02-14T04:28:03.646Z,58.15
2023-02-14T04:29:03.638Z,63.82
2023-02-14T04:30:03.698Z,56.44
2023-02-14T04:31:04.072Z,58.46
2023-02-14T04:32:03.783Z,63.44
2023-02-14T04:33:03.626Z,58.63
2023-02-14T04:34:03.602Z,70.25
2023-02-14T04:35:03.621Z,62.52
2023-02-14T04:36:03.597Z,61.84
2023-02-14T04:37:03.590Z,54.82
2023-02-14T04:38:03.597Z,66.82
2023-02-14T04:39:03.589Z,62.85
2023-02-14T04:40:03.552Z,63.00
2023-02-14T04:41:03.574Z,61.93
2023-02-14T04:42:03.575Z,64.07
2023-02-14T04:43:03.526Z,66.09
2023-02-14T04:44:03.527Z,55.06
2023-02-14T04:45:04.436Z,67.27
2023-02-14T04:46:04.522Z,61.41
2023-02-14T04:47:03.538Z,64.44
2023-02-14T04:48:03.504Z,66.82
2023-02-14T04:49:03.527Z,65.88
2023-02-14T04:50:03.497Z,60.32
2023-02-14T04:51:03.484Z,53.41
2023-02-14T04:52:03.468Z,63.66
2023-02-14T04:53:03.487Z,59.97
2023-02-14T04:54:04.441Z,66.48
2023-02-14T04:55:03.437Z,72.57
2023-02-14T04:56:03.452Z,51.45
2023-02-14T04:57:03.440Z,60.82
2023-02-14T04:58:03.468Z,68.82
2023-02-14T04:59:03.506Z,61.39
2023-02-14T05:00:03.413Z,60.21
2023-02-14T05:01:03.696Z,63.53
2023-02-14T05:02:03.590Z,60.44
2023-02-14T05:03:03.413Z,65.12
2023-02-14T05:04:03.376Z,64.53
2023-02-14T05:05:03.353Z,67.29
2023-02-14T05:06:03.389Z,68.15
2023-02-14T05:07:03.353Z,58.93
2023-02-14T05:08:03.343Z,67.98
2023-02-14T05:09:03.339Z,58.26
2023-02-14T05:10:03.340Z,61.20
2023-02-14T05:11:03.349Z,63.64
2023-02-14T05:12:03.448Z,62.32
2023-02-14T05:13:03.315Z,56.69
2023-02-14T05:14:03.295Z,68.93
2023-02-14T05:15:03.319Z,60.46
2023-02-14T05:16:03.323Z,61.93
2023-02-14T05:17:03.280Z,59.02
2023-02-14T05:18:03.280Z,61.11
2023-02-14T05:19:03.257Z,70.58
2023-02-14T05:20:03.276Z,64.95
2023-02-14T05:21:03.273Z,62.29
2023-02-14T05:22:03.232Z,67.74
2023-02-14T05:23:03.230Z,60.09
2023-02-14T05:24:03.222Z,66.98
2023-02-14T05:25:03.239Z,70.52
2023-02-14T05:26:03.201Z,68.28
2023-02-14T05:27:03.232Z,66.18
2023-02-14T05:28:03.183Z,63.85
2023-02-14T05:29:03.188Z,62.74
2023-02-14T05:30:03.333Z,73.42
2023-02-14T05:31:03.755Z,67.27
2023-02-14T05:32:03.195Z,72.29
2023-02-14T05:33:03.160Z,59.79
2023-02-14T05:34:03.132Z,69.96
2023-02-14T05:35:03.141Z,70.97
2023-02-14T05:36:03.148Z,68.48
2023-02-14T05:37:03.120Z,68.68
2023-02-14T05:38:03.148Z,60.84
2023-02-14T05:39:03.089Z,68.07
2023-02-14T05:40:03.134Z,64.52
2023-02-14T05:41:03.103Z,69.36
2023-02-14T05:42:04.146Z,65.34
2023-02-14T05:43:03.163Z,69.71
2023-02-14T05:44:03.055Z,71.19
2023-02-14T05:45:03.093Z,67.52
2023-02-14T05:46:03.116Z,68.13
2023-02-14T05:47:03.078Z,66.11
2023-02-14T05:48:03.058Z,70.42
2023-02-14T05:49:03.027Z,71.50
2023-02-14T05:50:03.008Z,70.90
2023-02-14T05:51:03.015Z,69.76
2023-02-14T05:52:03.007Z,69.83
2023-02-14T05:53:03.022Z,68.54
2023-02-14T05:54:02.984Z,57.32
2023-02-14T05:55:02.991Z,63.36
2023-02-14T05:56:02.969Z,68.47
2023-02-14T05:57:02.970Z,70.09
2023-02-14T05:58:02.952Z,64.39
2023-02-14T05:59:02.985Z,67.75
2023-02-14T06:00:02.994Z,72.21
2023-02-14T06:01:03.050Z,63.22
2023-02-14T06:02:03.019Z,68.34
2023-02-14T06:03:02.929Z,68.66
2023-02-14T06:04:03.068Z,61.76
2023-02-14T06:05:02.917Z,69.78
2023-02-14T06:06:02.919Z,68.74
2023-02-14T06:07:02.903Z,58.84
2023-02-14T06:08:02.882Z,73.26
2023-02-14T06:09:02.905Z,73.95
2023-02-14T06:10:02.929Z,67.34
2023-02-14T06:11:02.979Z,66.47
2023-02-14T06:12:02.853Z,67.37
2023-02-14T06:13:02.870Z,72.85
2023-02-14T06:14:02.856Z,73.06
2023-02-14T06:15:02.865Z,73.29
2023-02-14T06:16:02.859Z,70.63
2023-02-14T06:17:02.922Z,69.62
2023-02-14T06:18:02.824Z,70.07
2023-02-14T06:19:02.829Z,71.88
2023-02-14T06:20:02.991Z,67.31
2023-02-14T06:21:02.864Z,71.94
2023-02-14T06:22:02.812Z,73.11
2023-02-14T06:23:02.784Z,68.96
2023-02-14T06:24:02.783Z,71.16
2023-02-14T06:25:03.338Z,72.92
2023-02-14T06:26:34.964Z,72.46
2023-02-14T06:27:02.749Z,70.13
2023-02-14T06:28:02.738Z,69.98
2023-02-14T06:29:02.746Z,66.97
2023-02-14T06:30:02.770Z,67.98
2023-02-14T06:31:03.205Z,73.71
2023-02-14T06:32:02.784Z,67.33
2023-02-14T06:33:02.778Z,69.64
2023-02-14T06:34:02.712Z,73.30
2023-02-14T06:35:02.719Z,72.53
2023-02-14T06:36:02.682Z,69.70
2023-02-14T06:37:02.690Z,73.92
2023-02-14T06:38:02.660Z,67.76
2023-02-14T06:39:02.673Z,72.90
2023-02-14T06:40:02.732Z,72.18
2023-02-14T06:41:02.968Z,69.71
2023-02-14T06:42:03.448Z,69.18
2023-02-14T06:43:02.634Z,60.88
2023-02-14T06:44:02.597Z,71.34
2023-02-14T06:45:03.673Z,71.56
2023-02-14T06:46:02.653Z,70.68
2023-02-14T06:47:02.597Z,71.03
2023-02-14T06:48:02.607Z,71.96
2023-02-14T06:49:02.733Z,73.63
2023-02-14T06:50:02.586Z,64.16
2023-02-14T06:51:02.852Z,69.19
2023-02-14T06:52:03.576Z,64.43
2023-02-14T06:53:02.545Z,71.92
2023-02-14T06:54:02.550Z,70.27
2023-02-14T06:55:02.528Z,72.36
2023-02-14T06:56:02.535Z,62.46
2023-02-14T06:57:02.512Z,66.82
2023-02-14T06:58:02.510Z,63.03
2023-02-14T06:59:03.498Z,67.20
2023-02-14T07:00:02.486Z,73.46
2023-02-14T07:01:02.843Z,69.25
2023-02-14T07:02:02.481Z,68.93
2023-02-14T07:03:02.539Z,69.61
2023-02-14T07:04:02.470Z,71.67
2023-02-14T07:05:02.464Z,69.57
2023-02-14T07:06:02.436Z,61.03
2023-02-14T07:07:02.430Z,71.28
2023-02-14T07:08:02.444Z,69.49
2023-02-14T07:09:02.423Z,72.10
2023-02-14T07:10:02.423Z,70.57
2023-02-14T07:11:02.951Z,70.09
2023-02-14T07:12:02.746Z,68.05
2023-02-14T07:13:02.449Z,69.35
2023-02-14T07:14:02.397Z,74.51
2023-02-14T07:15:03.386Z,64.64
2023-02-14T07:16:02.459Z,74.09
2023-02-14T07:17:02.389Z,67.20
2023-02-14T07:18:02.418Z,63.74
2023-02-14T07:19:02.347Z,67.70
2023-02-14T07:20:02.397Z,67.46
2023-02-14T07:21:02.978Z,67.54
2023-02-14T07:22:02.328Z,68.48
2023-02-14T07:23:02.348Z,70.30
2023-02-14T07:24:02.321Z,57.88
2023-02-14T07:25:02.410Z,67.52
2023-02-14T07:26:02.346Z,56.27
2023-02-14T07:27:02.296Z,68.34
2023-02-14T07:28:02.988Z,70.80
2023-02-14T07:29:02.274Z,71.37
2023-02-14T07:30:02.353Z,68.13
2023-02-14T07:31:02.849Z,70.30
2023-02-14T07:32:02.395Z,72.28
2023-02-14T07:33:02.407Z,68.90
2023-02-14T07:34:02.235Z,67.31
2023-02-14T07:35:02.242Z,66.99
2023-02-14T07:36:02.215Z,67.16
2023-02-14T07:37:02.393Z,70.52
2023-02-14T07:38:02.280Z,68.04
2023-02-14T07:39:02.216Z,64.80
2023-02-14T07:40:02.241Z,69.75
2023-02-14T07:41:02.379Z,62.51
2023-02-14T07:42:03.253Z,72.11
2023-02-14T07:43:02.175Z,70.13
2023-02-14T07:44:02.168Z,70.81
2023-02-14T07:45:12.582Z,67.23
2023-02-14T07:46:04.245Z,68.16
2023-02-14T07:47:02.197Z,69.42
2023-02-14T07:48:02.157Z,69.67
2023-02-14T07:49:02.179Z,72.02
2023-02-14T07:50:02.153Z,68.69
2023-02-14T07:51:02.711Z,60.98
2023-02-14T07:52:02.084Z,58.35
2023-02-14T07:53:02.167Z,70.99
2023-02-14T07:54:02.113Z,69.56
2023-02-14T07:55:02.112Z,71.22
2023-02-14T07:56:02.080Z,69.72
2023-02-14T07:57:02.112Z,68.77
2023-02-14T07:58:02.054Z,70.41
2023-02-14T07:59:02.067Z,63.84
2023-02-14T08:00:02.055Z,62.11
2023-02-14T08:01:02.298Z,65.74
2023-02-14T08:02:02.208Z,69.97
2023-02-14T08:03:02.015Z,70.19
2023-02-14T08:04:01.993Z,69.78
2023-02-14T08:05:02.120Z,59.40
2023-02-14T08:06:02.000Z,68.38
2023-02-14T08:07:01.997Z,68.92
2023-02-14T08:08:01.977Z,61.68
2023-02-14T08:09:01.987Z,62.55
2023-02-14T08:10:01.944Z,68.67
2023-02-14T08:11:02.338Z,71.92
2023-02-14T08:12:01.965Z,66.14
2023-02-14T08:13:01.955Z,66.29
2023-02-14T08:14:01.937Z,62.27
2023-02-14T08:15:01.958Z,71.60
2023-02-14T08:16:01.936Z,72.30
2023-02-14T08:17:01.889Z,62.35
2023-02-14T08:18:02.039Z,73.07
2023-02-14T08:19:01.892Z,69.56
2023-02-14T08:20:01.935Z,68.71
2023-02-14T08:21:02.213Z,62.49
2023-02-14T08:22:01.858Z,62.72
2023-02-14T08:23:01.912Z,70.70
2023-02-14T08:24:01.872Z,60.30
2023-02-14T08:25:01.852Z,69.47
2023-02-14T08:26:01.856Z,62.40
2023-02-14T08:27:01.817Z,64.26
2023-02-14T08:28:01.803Z,69.76
2023-02-14T08:29:01.844Z,71.35
2023-02-14T08:30:02.430Z,63.88
2023-02-14T08:31:02.091Z,70.37
2023-02-14T08:32:01.887Z,61.78
2023-02-14T08:33:01.764Z,62.43
2023-02-14T08:34:01.900Z,72.08
2023-02-14T08:35:01.793Z,68.02
2023-02-14T08:36:01.758Z,67.16
2023-02-14T08:37:01.768Z,68.35
2023-02-14T08:38:01.772Z,66.02
2023-02-14T08:39:01.727Z,63.20
2023-02-14T08:40:01.802Z,72.35
2023-02-14T08:41:04.404Z,68.65
2023-02-14T08:42:01.749Z,69.09
2023-02-14T08:43:01.789Z,70.63
2023-02-14T08:44:01.700Z,68.34
2023-02-14T08:45:01.684Z,66.23
2023-02-14T08:46:02.037Z,67.42
2023-02-14T08:47:01.769Z,68.67
2023-02-14T08:48:02.694Z,66.79
2023-02-14T08:49:01.686Z,68.08
2023-02-14T08:50:01.662Z,69.42
2023-02-14T08:51:01.959Z,66.43
2023-02-14T08:52:01.648Z,63.88
2023-02-14T08:53:02.659Z,58.37
2023-02-14T08:54:01.640Z,66.13
2023-02-14T08:55:01.611Z,64.03
2023-02-14T08:56:01.878Z,64.41
2023-02-14T08:57:01.602Z,69.43
2023-02-14T08:58:01.627Z,71.35
2023-02-14T08:59:01.602Z,67.08
2023-02-14T09:00:01.593Z,68.90
2023-02-14T09:01:01.997Z,58.58
2023-02-14T09:02:01.575Z,65.13
2023-02-14T09:03:01.749Z,65.38
2023-02-14T09:04:01.608Z,67.59
2023-02-14T09:05:01.733Z,69.07
2023-02-14T09:06:01.547Z,68.87
2023-02-14T09:07:01.552Z,63.76
2023-02-14T09:08:01.587Z,67.00
2023-02-14T09:09:02.626Z,68.14
2023-02-14T09:10:02.551Z,71.43
2023-02-14T09:11:01.799Z,68.86
2023-02-14T09:12:01.521Z,60.92
2023-02-14T09:13:01.486Z,69.29
2023-02-14T09:14:01.482Z,64.61
2023-02-14T09:15:02.501Z,61.15
2023-02-14T09:16:01.510Z,65.79
2023-02-14T09:17:01.542Z,57.01
2023-02-14T09:18:01.478Z,66.44
2023-02-14T09:19:01.491Z,66.65
2023-02-14T09:20:01.562Z,72.99
2023-02-14T09:21:01.831Z,65.55
2023-02-14T09:22:01.416Z,62.49
2023-02-14T09:23:01.410Z,66.48
2023-02-14T09:24:01.450Z,65.54
2023-02-14T09:25:01.398Z,66.25
2023-02-14T09:26:01.460Z,69.44
2023-02-14T09:27:01.380Z,70.00
2023-02-14T09:28:01.365Z,64.81
2023-02-14T09:29:01.388Z,69.52
2023-02-14T09:30:01.443Z,65.23
2023-02-14T09:31:01.757Z,68.77
2023-02-14T09:32:01.437Z,60.47
2023-02-14T09:33:01.368Z,69.00
2023-02-14T09:34:01.354Z,66.82
2023-02-14T09:35:01.328Z,70.21
2023-02-14T09:36:01.294Z,69.01
2023-02-14T09:37:01.309Z,63.82
2023-02-14T09:38:01.324Z,69.44
2023-02-14T09:39:01.269Z,66.53
2023-02-14T09:40:01.300Z,68.07
2023-02-14T09:41:01.553Z,70.41
2023-02-14T09:42:01.293Z,59.76
2023-02-14T09:43:02.087Z,70.33
2023-02-14T09:44:02.257Z,60.57
2023-02-14T09:45:02.053Z,69.68
2023-02-14T09:46:01.279Z,64.50
2023-02-14T09:47:01.231Z,69.31
2023-02-14T09:48:01.251Z,68.78
2023-02-14T09:49:01.314Z,65.43
2023-02-14T09:50:01.259Z,71.87
2023-02-14T09:51:01.528Z,70.90
2023-02-14T09:52:01.193Z,66.41
2023-02-14T09:53:01.208Z,68.15
2023-02-14T09:54:01.153Z,53.78
2023-02-14T09:55:01.181Z,67.34
2023-02-14T09:56:01.165Z,60.72
2023-02-14T09:57:01.129Z,64.48
2023-02-14T09:58:01.155Z,65.88
2023-02-14T09:59:01.143Z,71.98
2023-02-14T10:00:01.120Z,70.25
2023-02-14T10:01:01.534Z,66.53
2023-02-14T10:02:01.202Z,65.11
2023-02-14T10:03:01.126Z,62.63
2023-02-14T10:04:01.082Z,66.46
2023-02-14T10:05:01.102Z,64.22
2023-02-14T10:06:01.122Z,69.61
2023-02-14T10:07:01.082Z,63.49
2023-02-14T10:08:01.109Z,71.90
2023-02-14T10:09:01.107Z,63.60
2023-02-14T10:10:01.036Z,70.16
2023-02-14T10:11:01.340Z,68.00
2023-02-14T10:12:01.010Z,66.98
2023-02-14T10:13:01.023Z,61.64
2023-02-14T10:14:01.040Z,68.09
2023-02-14T10:15:01.087Z,66.39
2023-02-14T10:16:00.988Z,64.03
2023-02-14T10:17:01.167Z,66.81
2023-02-14T10:18:00.989Z,70.64
2023-02-14T10:19:01.004Z,65.86
2023-02-14T10:20:00.981Z,67.97
2023-02-14T10:21:01.317Z,67.40
2023-02-14T10:22:00.990Z,65.07
2023-02-14T10:23:00.948Z,60.41
2023-02-14T10:24:00.970Z,71.66
2023-02-14T10:25:00.954Z,60.53
2023-02-14T10:26:00.945Z,71.43
2023-02-14T10:27:00.918Z,68.66
2023-02-14T10:28:00.904Z,69.83
2023-02-14T10:29:00.925Z,66.57
2023-02-14T10:30:00.981Z,64.52
2023-02-14T10:31:01.377Z,65.65
2023-02-14T10:32:00.953Z,71.25
2023-02-14T10:33:00.874Z,68.94
2023-02-14T10:34:00.854Z,64.70
2023-02-14T10:35:00.865Z,66.78
2023-02-14T10:36:00.902Z,69.89
2023-02-14T10:37:00.858Z,66.09
2023-02-14T10:38:00.837Z,66.97
2023-02-14T10:39:00.864Z,66.98
2023-02-14T10:40:00.843Z,68.99
2023-02-14T10:41:01.065Z,66.97
2023-02-14T10:42:00.844Z,68.03
2023-02-14T10:43:00.820Z,56.81
2023-02-14T10:44:00.786Z,71.44
2023-02-14T10:45:00.773Z,66.85
2023-02-14T10:46:00.824Z,68.14
2023-02-14T10:47:00.831Z,69.05
2023-02-14T10:48:00.908Z,68.58
2023-02-14T10:49:00.732Z,61.11
2023-02-14T10:50:00.787Z,65.92
2023-02-14T10:51:01.170Z,65.75
2023-02-14T10:52:00.791Z,68.98
2023-02-14T10:53:00.699Z,69.88
2023-02-14T10:54:00.727Z,61.91
2023-02-14T10:55:00.702Z,65.07
2023-02-14T10:56:00.746Z,68.00
2023-02-14T10:57:00.705Z,62.91
2023-02-14T10:58:00.676Z,64.13
2023-02-14T10:59:00.707Z,67.43
2023-02-14T11:00:00.659Z,68.34
2023-02-14T11:01:01.071Z,65.76
2023-02-14T11:02:00.647Z,69.47
2023-02-14T11:03:00.641Z,64.63
2023-02-14T11:04:00.768Z,68.29
2023-02-14T11:05:00.634Z,63.45
2023-02-14T11:06:00.623Z,68.64
2023-02-14T11:07:00.592Z,64.93
2023-02-14T11:08:00.590Z,68.99
2023-02-14T11:09:00.593Z,68.66
2023-02-14T11:10:00.643Z,67.51
2023-02-14T11:11:00.841Z,70.17
2023-02-14T11:12:00.574Z,69.06
2023-02-14T11:13:00.566Z,68.05
2023-02-14T11:14:00.548Z,65.48
2023-02-14T11:15:00.565Z,67.99
2023-02-14T11:16:00.740Z,53.06
2023-02-14T11:17:00.603Z,67.59
2023-02-14T11:18:00.551Z,66.40
2023-02-14T11:19:00.536Z,62.17
2023-02-14T11:20:00.526Z,69.64
2023-02-14T11:21:00.510Z,61.26
2023-02-14T11:22:00.486Z,68.40
2023-02-14T11:23:00.498Z,66.48
2023-02-14T11:24:00.466Z,66.53
2023-02-14T11:25:01.126Z,70.52
2023-02-14T11:26:00.842Z,68.08
2023-02-14T11:27:00.442Z,68.14
2023-02-14T11:28:00.501Z,66.61
2023-02-14T11:29:00.453Z,65.07
2023-02-14T11:30:00.518Z,63.97
2023-02-14T11:31:00.959Z,67.54
2023-02-14T11:32:00.526Z,66.48
2023-02-14T11:33:00.504Z,60.98
2023-02-14T11:34:02.941Z,66.04
2023-02-14T11:35:00.451Z,65.44
2023-02-14T11:36:00.390Z,68.64
2023-02-14T11:37:00.361Z,71.75
2023-02-14T11:38:00.409Z,66.12
2023-02-14T11:39:00.356Z,70.71
2023-02-14T11:40:00.474Z,71.60
2023-02-14T11:41:00.692Z,67.03
2023-02-14T11:42:00.345Z,68.60
2023-02-14T11:43:13.525Z,67.79
2023-02-14T11:44:02.320Z,65.35
2023-02-14T11:45:00.317Z,67.82
2023-02-14T11:46:00.330Z,66.53
2023-02-14T11:47:00.303Z,67.65
2023-02-14T11:48:00.351Z,69.33
2023-02-14T11:49:00.299Z,66.67
2023-02-14T11:50:00.251Z,64.97
2023-02-14T11:51:00.703Z,64.02
2023-02-14T11:52:00.269Z,68.29
2023-02-14T11:53:00.271Z,66.83
2023-02-14T11:54:00.241Z,68.75
2023-02-14T11:55:00.245Z,63.82
2023-02-14T11:56:00.260Z,69.13
2023-02-14T11:57:00.211Z,66.86
2023-02-14T11:58:00.226Z,67.09
2023-02-14T11:59:00.232Z,66.61
2023-02-14T12:00:00.187Z,69.00
2023-02-14T12:01:00.480Z,60.23
2023-02-14T12:02:00.266Z,69.97
2023-02-14T12:03:00.162Z,68.07
2023-02-14T12:04:00.236Z,66.24
2023-02-14T12:05:00.146Z,65.41
2023-02-14T12:06:01.122Z,70.69
2023-02-14T12:07:00.196Z,66.88
2023-02-14T12:08:00.175Z,67.95
2023-02-14T12:09:00.156Z,67.74
2023-02-14T12:10:00.337Z,71.61
2023-02-14T12:11:01.389Z,69.92
2023-02-14T12:12:00.130Z,68.28
2023-02-14T12:13:00.083Z,65.26
2023-02-14T12:14:00.106Z,67.81
2023-02-14T12:15:00.113Z,65.31
2023-02-14T12:16:00.152Z,68.94
2023-02-14T12:17:00.094Z,65.35
2023-02-14T12:18:00.120Z,67.45
2023-02-14T12:19:00.091Z,67.07
2023-02-14T12:20:00.033Z,69.74
2023-02-14T12:21:00.440Z,67.77
2023-02-14T12:22:00.051Z,64.62
2023-02-14T12:23:00.033Z,63.38
2023-02-14T12:24:00.007Z,64.85
2023-02-14T12:25:00.017Z,65.52
2023-02-14T12:26:31.927Z,71.35
2023-02-14T12:27:00.568Z,70.55
2023-02-14T12:27:59.975Z,60.19
2023-02-14T12:28:59.982Z,70.19
2023-02-14T12:30:00.088Z,68.97
2023-02-14T12:31:00.339Z,66.49
2023-02-14T12:32:00.098Z,66.02
2023-02-14T12:32:59.933Z,69.61
2023-02-14T12:33:59.960Z,68.88
2023-02-14T12:34:59.949Z,62.74
2023-02-14T12:35:59.916Z,69.68
2023-02-14T12:36:59.984Z,67.38
2023-02-14T12:38:04.615Z,69.59
2023-02-14T12:39:01.900Z,64.54
2023-02-14T12:39:59.909Z,68.19
2023-02-14T12:41:00.113Z,70.09
2023-02-14T12:41:59.861Z,69.05
2023-02-14T12:42:59.892Z,70.98
2023-02-14T12:43:59.849Z,63.21
2023-02-14T12:44:59.838Z,56.60
2023-02-14T12:46:00.190Z,70.34
2023-02-14T12:46:59.850Z,75.60
2023-02-14T12:47:59.854Z,66.55
2023-02-14T12:48:59.835Z,70.05
2023-02-14T12:49:59.797Z,71.95
2023-02-14T12:51:00.154Z,62.49
2023-02-14T12:52:00.815Z,70.02
2023-02-14T12:52:59.829Z,69.98
2023-02-14T12:53:59.798Z,68.61
2023-02-14T12:54:59.762Z,70.62
2023-02-14T12:55:59.782Z,72.23
2023-02-14T12:56:59.750Z,66.24
2023-02-14T12:58:00.779Z,66.69
2023-02-14T12:58:59.804Z,67.17
2023-02-14T12:59:59.764Z,63.24
2023-02-14T13:01:00.208Z,63.97
2023-02-14T13:01:59.746Z,68.01
2023-02-14T13:02:59.763Z,67.59
2023-02-14T13:03:59.709Z,66.01
2023-02-14T13:04:59.760Z,65.89
2023-02-14T13:05:59.714Z,70.07
2023-02-14T13:06:59.682Z,67.65
2023-02-14T13:07:59.694Z,65.45
2023-02-14T13:08:59.655Z,63.78